sensor_id;sensor_type;location;lat;lon;timestamp;P1;durP1;ratioP1;P2;durP2;ratioP2
59512;SDS011;45330;51.634;5.562;2023-03-04T00:00:09;21.13;;;4.60;;
59512;SDS011;45330;51.634;5.562;2023-03-04T00:02:35;21.95;;;3.60;;
59512;SDS011;45330;51.634;5.562;2023-03-04T00:05:01;22.40;;;3.53;;
59512;SDS011;45330;51.634;5.562;2023-03-04T00:07:27;20.42;;;4.32;;
59512;SDS011;45330;51.634;5.562;2023-03-04T00:09:53;19.05;;;3.85;;
59512;SDS011;45330;51.634;5.562;2023-03-04T00:12:18;23.67;;;4.13;;
59512;SDS011;45330;51.634;5.562;2023-03-04T00:14:44;20.38;;;3.75;;
59512;SDS011;45330;51.634;5.562;2023-03-04T00:17:09;23.00;;;4.15;;
59512;SDS011;45330;51.634;5.562;2023-03-04T00:19:34;21.27;;;4.28;;
59512;SDS011;45330;51.634;5.562;2023-03-04T00:22:00;22.38;;;4.07;;
59512;SDS011;45330;51.634;5.562;2023-03-04T00:24:26;20.45;;;3.75;;
59512;SDS011;45330;51.634;5.562;2023-03-04T00:26:51;19.52;;;3.92;;
59512;SDS011;45330;51.634;5.562;2023-03-04T00:29:17;22.40;;;4.10;;
59512;SDS011;45330;51.634;5.562;2023-03-04T00:31:42;18.13;;;3.17;;
59512;SDS011;45330;51.634;5.562;2023-03-04T00:34:07;16.40;;;3.10;;
59512;SDS011;45330;51.634;5.562;2023-03-04T00:36:33;18.35;;;3.70;;
59512;SDS011;45330;51.634;5.562;2023-03-04T00:38:58;18.23;;;3.13;;
59512;SDS011;45330;51.634;5.562;2023-03-04T00:41:23;18.85;;;3.40;;
59512;SDS011;45330;51.634;5.562;2023-03-04T00:43:49;20.63;;;3.40;;
59512;SDS011;45330;51.634;5.562;2023-03-04T00:46:15;20.60;;;3.25;;
59512;SDS011;45330;51.634;5.562;2023-03-04T00:48:40;19.50;;;3.58;;
59512;SDS011;45330;51.634;5.562;2023-03-04T00:51:05;16.98;;;2.80;;
59512;SDS011;45330;51.634;5.562;2023-03-04T00:53:31;19.73;;;3.25;;
59512;SDS011;45330;51.634;5.562;2023-03-04T00:55:56;21.27;;;3.38;;
59512;SDS011;45330;51.634;5.562;2023-03-04T00:58:21;16.63;;;2.88;;
59512;SDS011;45330;51.634;5.562;2023-03-04T01:00:47;13.48;;;2.70;;
59512;SDS011;45330;51.634;5.562;2023-03-04T01:03:12;20.45;;;3.22;;
59512;SDS011;45330;51.634;5.562;2023-03-04T01:05:37;21.33;;;3.58;;
59512;SDS011;45330;51.634;5.562;2023-03-04T01:08:03;21.35;;;3.42;;
59512;SDS011;45330;51.634;5.562;2023-03-04T01:10:29;20.10;;;3.10;;
59512;SDS011;45330;51.634;5.562;2023-03-04T01:12:55;18.27;;;3.42;;
59512;SDS011;45330;51.634;5.562;2023-03-04T01:15:21;20.40;;;4.03;;
59512;SDS011;45330;51.634;5.562;2023-03-04T01:17:47;19.63;;;3.58;;
59512;SDS011;45330;51.634;5.562;2023-03-04T01:20:13;14.38;;;2.78;;
59512;SDS011;45330;51.634;5.562;2023-03-04T01:22:39;19.77;;;3.17;;
59512;SDS011;45330;51.634;5.562;2023-03-04T01:25:05;20.92;;;3.30;;
59512;SDS011;45330;51.634;5.562;2023-03-04T01:27:31;21.70;;;2.90;;
59512;SDS011;45330;51.634;5.562;2023-03-04T01:29:56;20.48;;;3.40;;
59512;SDS011;45330;51.634;5.562;2023-03-04T01:32:22;13.25;;;3.10;;
59512;SDS011;45330;51.634;5.562;2023-03-04T01:34:47;16.27;;;3.17;;
59512;SDS011;45330;51.634;5.562;2023-03-04T01:37:12;19.65;;;3.17;;
59512;SDS011;45330;51.634;5.562;2023-03-04T01:39:38;14.85;;;2.80;;
59512;SDS011;45330;51.634;5.562;2023-03-04T01:42:03;19.95;;;3.28;;
59512;SDS011;45330;51.634;5.562;2023-03-04T01:44:29;15.40;;;2.50;;
59512;SDS011;45330;51.634;5.562;2023-03-04T01:46:55;19.73;;;3.22;;
59512;SDS011;45330;51.634;5.562;2023-03-04T01:49:21;17.00;;;3.28;;
59512;SDS011;45330;51.634;5.562;2023-03-04T01:51:47;14.95;;;2.47;;
59512;SDS011;45330;51.634;5.562;2023-03-04T01:54:16;20.73;;;3.38;;
59512;SDS011;45330;51.634;5.562;2023-03-04T01:56:42;14.13;;;3.10;;
59512;SDS011;45330;51.634;5.562;2023-03-04T01:59:19;18.25;;;3.08;;
59512;SDS011;45330;51.634;5.562;2023-03-04T02:04:20;17.05;;;2.65;;
59512;SDS011;45330;51.634;5.562;2023-03-04T02:06:48;15.23;;;2.63;;
59512;SDS011;45330;51.634;5.562;2023-03-04T02:09:15;11.30;;;2.40;;
59512;SDS011;45330;51.634;5.562;2023-03-04T02:11:41;14.70;;;2.60;;
59512;SDS011;45330;51.634;5.562;2023-03-04T02:14:09;15.82;;;2.80;;
59512;SDS011;45330;51.634;5.562;2023-03-04T02:16:35;16.98;;;2.80;;
59512;SDS011;45330;51.634;5.562;2023-03-04T02:19:01;16.98;;;3.50;;
59512;SDS011;45330;51.634;5.562;2023-03-04T02:21:31;16.55;;;2.58;;
59512;SDS011;45330;51.634;5.562;2023-03-04T02:26:46;19.05;;;2.55;;
59512;SDS011;45330;51.634;5.562;2023-03-04T02:29:12;13.63;;;2.45;;
59512;SDS011;45330;51.634;5.562;2023-03-04T02:31:40;13.60;;;2.70;;
59512;SDS011;45330;51.634;5.562;2023-03-04T02:34:13;18.30;;;3.33;;
59512;SDS011;45330;51.634;5.562;2023-03-04T02:36:46;16.58;;;2.78;;
59512;SDS011;45330;51.634;5.562;2023-03-04T02:41:44;19.60;;;3.55;;
59512;SDS011;45330;51.634;5.562;2023-03-04T02:44:20;17.00;;;3.30;;
59512;SDS011;45330;51.634;5.562;2023-03-04T02:46:50;15.13;;;2.80;;
59512;SDS011;45330;51.634;5.562;2023-03-04T02:49:16;17.48;;;2.75;;
59512;SDS011;45330;51.634;5.562;2023-03-04T02:51:43;15.48;;;2.67;;
59512;SDS011;45330;51.634;5.562;2023-03-04T02:54:18;14.13;;;2.58;;
59512;SDS011;45330;51.634;5.562;2023-03-04T02:56:47;13.18;;;2.50;;
59512;SDS011;45330;51.634;5.562;2023-03-04T02:59:13;19.13;;;3.28;;
59512;SDS011;45330;51.634;5.562;2023-03-04T03:01:39;18.27;;;2.80;;
59512;SDS011;45330;51.634;5.562;2023-03-04T03:04:04;16.25;;;2.95;;
59512;SDS011;45330;51.634;5.562;2023-03-04T03:06:30;14.00;;;2.42;;
59512;SDS011;45330;51.634;5.562;2023-03-04T03:08:55;16.67;;;2.70;;
59512;SDS011;45330;51.634;5.562;2023-03-04T03:11:20;22.10;;;2.88;;
59512;SDS011;45330;51.634;5.562;2023-03-04T03:13:46;16.02;;;3.10;;
59512;SDS011;45330;51.634;5.562;2023-03-04T03:16:11;17.80;;;2.90;;
59512;SDS011;45330;51.634;5.562;2023-03-04T03:18:36;18.30;;;2.83;;
59512;SDS011;45330;51.634;5.562;2023-03-04T03:21:02;18.23;;;2.85;;
59512;SDS011;45330;51.634;5.562;2023-03-04T03:23:27;14.32;;;2.53;;
59512;SDS011;45330;51.634;5.562;2023-03-04T03:25:53;17.48;;;2.85;;
59512;SDS011;45330;51.634;5.562;2023-03-04T03:28:18;17.08;;;2.70;;
59512;SDS011;45330;51.634;5.562;2023-03-04T03:30:43;16.15;;;3.03;;
59512;SDS011;45330;51.634;5.562;2023-03-04T03:33:09;17.50;;;3.00;;
59512;SDS011;45330;51.634;5.562;2023-03-04T03:35:34;18.52;;;2.58;;
59512;SDS011;45330;51.634;5.562;2023-03-04T03:37:59;15.93;;;2.55;;
59512;SDS011;45330;51.634;5.562;2023-03-04T03:40:25;20.95;;;2.90;;
59512;SDS011;45330;51.634;5.562;2023-03-04T03:42:50;16.77;;;3.35;;
59512;SDS011;45330;51.634;5.562;2023-03-04T03:45:16;17.27;;;3.30;;
59512;SDS011;45330;51.634;5.562;2023-03-04T03:47:41;20.35;;;3.35;;
59512;SDS011;45330;51.634;5.562;2023-03-04T03:50:06;14.38;;;2.58;;
59512;SDS011;45330;51.634;5.562;2023-03-04T03:52:32;17.00;;;2.88;;
59512;SDS011;45330;51.634;5.562;2023-03-04T03:54:57;18.50;;;3.03;;
59512;SDS011;45330;51.634;5.562;2023-03-04T03:57:25;14.80;;;2.78;;
59512;SDS011;45330;51.634;5.562;2023-03-04T03:59:51;14.70;;;2.60;;
59512;SDS011;45330;51.634;5.562;2023-03-04T04:02:17;18.00;;;3.55;;
59512;SDS011;45330;51.634;5.562;2023-03-04T04:04:42;15.77;;;2.90;;
59512;SDS011;45330;51.634;5.562;2023-03-04T04:07:07;13.48;;;2.63;;
59512;SDS011;45330;51.634;5.562;2023-03-04T04:09:33;18.73;;;2.65;;
59512;SDS011;45330;51.634;5.562;2023-03-04T04:11:58;15.15;;;2.42;;
59512;SDS011;45330;51.634;5.562;2023-03-04T04:14:23;19.42;;;2.60;;
59512;SDS011;45330;51.634;5.562;2023-03-04T04:16:49;13.55;;;2.55;;
59512;SDS011;45330;51.634;5.562;2023-03-04T04:19:18;17.95;;;2.95;;
59512;SDS011;45330;51.634;5.562;2023-03-04T04:21:45;14.40;;;2.67;;
59512;SDS011;45330;51.634;5.562;2023-03-04T04:24:11;14.65;;;3.10;;
59512;SDS011;45330;51.634;5.562;2023-03-04T04:26:36;19.83;;;3.42;;
59512;SDS011;45330;51.634;5.562;2023-03-04T04:29:01;18.13;;;2.60;;
59512;SDS011;45330;51.634;5.562;2023-03-04T04:31:27;12.80;;;2.70;;
59512;SDS011;45330;51.634;5.562;2023-03-04T04:33:52;14.70;;;3.05;;
59512;SDS011;45330;51.634;5.562;2023-03-04T04:36:18;15.25;;;2.63;;
59512;SDS011;45330;51.634;5.562;2023-03-04T04:38:44;15.40;;;3.00;;
59512;SDS011;45330;51.634;5.562;2023-03-04T04:41:15;17.13;;;2.92;;
59512;SDS011;45330;51.634;5.562;2023-03-04T04:43:46;17.20;;;3.05;;
59512;SDS011;45330;51.634;5.562;2023-03-04T04:46:12;14.48;;;3.13;;
59512;SDS011;45330;51.634;5.562;2023-03-04T04:48:38;19.70;;;3.10;;
59512;SDS011;45330;51.634;5.562;2023-03-04T04:51:03;14.90;;;2.92;;
59512;SDS011;45330;51.634;5.562;2023-03-04T04:53:29;19.92;;;3.17;;
59512;SDS011;45330;51.634;5.562;2023-03-04T04:55:54;20.83;;;3.13;;
59512;SDS011;45330;51.634;5.562;2023-03-04T04:58:20;13.30;;;2.72;;
59512;SDS011;45330;51.634;5.562;2023-03-04T05:00:45;20.38;;;2.70;;
59512;SDS011;45330;51.634;5.562;2023-03-04T05:03:10;14.02;;;2.20;;
59512;SDS011;45330;51.634;5.562;2023-03-04T05:05:36;15.82;;;2.40;;
59512;SDS011;45330;51.634;5.562;2023-03-04T05:08:01;15.10;;;2.80;;
59512;SDS011;45330;51.634;5.562;2023-03-04T05:10:27;16.40;;;2.60;;
59512;SDS011;45330;51.634;5.562;2023-03-04T05:12:52;12.93;;;2.45;;
59512;SDS011;45330;51.634;5.562;2023-03-04T05:15:18;13.23;;;3.15;;
59512;SDS011;45330;51.634;5.562;2023-03-04T05:17:43;13.82;;;2.40;;
59512;SDS011;45330;51.634;5.562;2023-03-04T05:20:08;19.02;;;3.22;;
59512;SDS011;45330;51.634;5.562;2023-03-04T05:22:34;14.32;;;2.28;;
59512;SDS011;45330;51.634;5.562;2023-03-04T05:25:00;15.48;;;2.92;;
59512;SDS011;45330;51.634;5.562;2023-03-04T05:27:25;15.77;;;2.53;;
59512;SDS011;45330;51.634;5.562;2023-03-04T05:29:50;16.30;;;2.50;;
59512;SDS011;45330;51.634;5.562;2023-03-04T05:32:16;13.90;;;2.58;;
59512;SDS011;45330;51.634;5.562;2023-03-04T05:34:41;16.70;;;2.70;;
59512;SDS011;45330;51.634;5.562;2023-03-04T05:37:06;14.27;;;2.78;;
59512;SDS011;45330;51.634;5.562;2023-03-04T05:39:32;14.85;;;3.08;;
59512;SDS011;45330;51.634;5.562;2023-03-04T05:41:57;14.65;;;2.40;;
59512;SDS011;45330;51.634;5.562;2023-03-04T05:44:22;12.32;;;2.47;;
59512;SDS011;45330;51.634;5.562;2023-03-04T05:46:48;13.30;;;2.78;;
59512;SDS011;45330;51.634;5.562;2023-03-04T05:49:13;13.23;;;2.42;;
59512;SDS011;45330;51.634;5.562;2023-03-04T05:51:39;16.20;;;2.53;;
59512;SDS011;45330;51.634;5.562;2023-03-04T05:54:04;16.98;;;2.55;;
59512;SDS011;45330;51.634;5.562;2023-03-04T05:56:29;12.60;;;2.40;;
59512;SDS011;45330;51.634;5.562;2023-03-04T05:58:57;16.48;;;2.70;;
59512;SDS011;45330;51.634;5.562;2023-03-04T06:01:23;12.13;;;2.60;;
59512;SDS011;45330;51.634;5.562;2023-03-04T06:03:49;14.30;;;2.40;;
59512;SDS011;45330;51.634;5.562;2023-03-04T06:06:14;17.63;;;3.10;;
59512;SDS011;45330;51.634;5.562;2023-03-04T06:08:39;14.82;;;2.90;;
59512;SDS011;45330;51.634;5.562;2023-03-04T06:11:05;14.10;;;2.58;;
59512;SDS011;45330;51.634;5.562;2023-03-04T06:13:31;11.20;;;2.75;;
59512;SDS011;45330;51.634;5.562;2023-03-04T06:15:57;17.25;;;3.70;;
59512;SDS011;45330;51.634;5.562;2023-03-04T06:18:24;13.15;;;2.40;;
59512;SDS011;45330;51.634;5.562;2023-03-04T06:20:53;10.35;;;2.08;;
59512;SDS011;45330;51.634;5.562;2023-03-04T06:23:20;16.27;;;2.40;;
59512;SDS011;45330;51.634;5.562;2023-03-04T06:25:45;10.10;;;2.28;;
59512;SDS011;45330;51.634;5.562;2023-03-04T06:28:10;12.32;;;2.50;;
59512;SDS011;45330;51.634;5.562;2023-03-04T06:30:36;10.43;;;2.92;;
59512;SDS011;45330;51.634;5.562;2023-03-04T06:33:01;15.98;;;2.42;;
59512;SDS011;45330;51.634;5.562;2023-03-04T06:35:27;7.80;;;2.08;;
59512;SDS011;45330;51.634;5.562;2023-03-04T06:37:52;13.57;;;2.75;;
59512;SDS011;45330;51.634;5.562;2023-03-04T06:40:18;10.27;;;2.40;;
59512;SDS011;45330;51.634;5.562;2023-03-04T06:42:43;11.43;;;2.08;;
59512;SDS011;45330;51.634;5.562;2023-03-04T06:45:09;13.63;;;2.53;;
59512;SDS011;45330;51.634;5.562;2023-03-04T06:47:35;9.80;;;2.30;;
59512;SDS011;45330;51.634;5.562;2023-03-04T06:50:01;9.10;;;2.90;;
59512;SDS011;45330;51.634;5.562;2023-03-04T06:52:27;7.45;;;2.33;;
59512;SDS011;45330;51.634;5.562;2023-03-04T06:54:53;12.48;;;2.63;;
59512;SDS011;45330;51.634;5.562;2023-03-04T06:57:18;12.60;;;2.20;;
59512;SDS011;45330;51.634;5.562;2023-03-04T06:59:43;9.82;;;2.20;;
59512;SDS011;45330;51.634;5.562;2023-03-04T07:02:10;10.68;;;2.33;;
59512;SDS011;45330;51.634;5.562;2023-03-04T07:04:36;9.68;;;2.03;;
59512;SDS011;45330;51.634;5.562;2023-03-04T07:07:01;11.20;;;2.40;;
59512;SDS011;45330;51.634;5.562;2023-03-04T07:09:27;16.63;;;3.40;;
59512;SDS011;45330;51.634;5.562;2023-03-04T07:11:52;15.75;;;3.33;;
59512;SDS011;45330;51.634;5.562;2023-03-04T07:14:18;11.07;;;2.40;;
59512;SDS011;45330;51.634;5.562;2023-03-04T07:16:43;11.00;;;2.55;;
59512;SDS011;45330;51.634;5.562;2023-03-04T07:19:08;15.45;;;3.17;;
59512;SDS011;45330;51.634;5.562;2023-03-04T07:21:34;14.30;;;2.60;;
59512;SDS011;45330;51.634;5.562;2023-03-04T07:23:59;15.00;;;2.75;;
59512;SDS011;45330;51.634;5.562;2023-03-04T07:26:25;10.30;;;2.88;;
59512;SDS011;45330;51.634;5.562;2023-03-04T07:28:50;11.52;;;2.45;;
59512;SDS011;45330;51.634;5.562;2023-03-04T07:31:22;12.75;;;3.13;;
59512;SDS011;45330;51.634;5.562;2023-03-04T07:33:54;12.10;;;3.17;;
59512;SDS011;45330;51.634;5.562;2023-03-04T07:36:21;10.73;;;2.83;;
59512;SDS011;45330;51.634;5.562;2023-03-04T07:38:48;9.98;;;2.63;;
59512;SDS011;45330;51.634;5.562;2023-03-04T07:41:14;14.93;;;2.90;;
59512;SDS011;45330;51.634;5.562;2023-03-04T07:43:41;15.45;;;2.92;;
59512;SDS011;45330;51.634;5.562;2023-03-04T07:46:07;13.88;;;2.67;;
59512;SDS011;45330;51.634;5.562;2023-03-04T07:48:32;10.65;;;2.80;;
59512;SDS011;45330;51.634;5.562;2023-03-04T07:51:11;8.00;;;2.58;;
59512;SDS011;45330;51.634;5.562;2023-03-04T07:53:45;10.63;;;2.60;;
59512;SDS011;45330;51.634;5.562;2023-03-04T07:56:13;15.90;;;3.00;;
59512;SDS011;45330;51.634;5.562;2023-03-04T07:58:40;14.77;;;2.88;;
59512;SDS011;45330;51.634;5.562;2023-03-04T08:01:10;14.20;;;3.13;;
59512;SDS011;45330;51.634;5.562;2023-03-04T08:03:36;13.80;;;2.40;;
59512;SDS011;45330;51.634;5.562;2023-03-04T08:06:09;8.57;;;2.42;;
59512;SDS011;45330;51.634;5.562;2023-03-04T08:08:36;9.27;;;2.60;;
59512;SDS011;45330;51.634;5.562;2023-03-04T08:11:06;13.23;;;2.80;;
59512;SDS011;45330;51.634;5.562;2023-03-04T08:13:34;11.13;;;2.95;;
59512;SDS011;45330;51.634;5.562;2023-03-04T08:16:00;14.90;;;2.50;;
59512;SDS011;45330;51.634;5.562;2023-03-04T08:18:26;12.18;;;2.42;;
59512;SDS011;45330;51.634;5.562;2023-03-04T08:20:52;15.93;;;2.97;;
59512;SDS011;45330;51.634;5.562;2023-03-04T08:23:17;14.88;;;2.75;;
59512;SDS011;45330;51.634;5.562;2023-03-04T08:25:43;9.93;;;2.70;;
59512;SDS011;45330;51.634;5.562;2023-03-04T08:28:09;12.70;;;2.38;;
59512;SDS011;45330;51.634;5.562;2023-03-04T08:30:37;16.98;;;2.92;;
59512;SDS011;45330;51.634;5.562;2023-03-04T08:33:03;13.85;;;2.53;;
59512;SDS011;45330;51.634;5.562;2023-03-04T08:35:29;17.10;;;3.00;;
59512;SDS011;45330;51.634;5.562;2023-03-04T08:37:55;16.52;;;3.08;;
59512;SDS011;45330;51.634;5.562;2023-03-04T08:40:21;13.48;;;2.40;;
59512;SDS011;45330;51.634;5.562;2023-03-04T08:42:46;10.73;;;2.58;;
59512;SDS011;45330;51.634;5.562;2023-03-04T08:45:12;12.90;;;2.40;;
59512;SDS011;45330;51.634;5.562;2023-03-04T08:47:37;11.35;;;2.50;;
59512;SDS011;45330;51.634;5.562;2023-03-04T08:50:03;9.50;;;2.15;;
59512;SDS011;45330;51.634;5.562;2023-03-04T08:52:30;11.73;;;2.22;;
59512;SDS011;45330;51.634;5.562;2023-03-04T08:54:55;10.30;;;1.98;;
59512;SDS011;45330;51.634;5.562;2023-03-04T08:57:21;10.32;;;2.30;;
59512;SDS011;45330;51.634;5.562;2023-03-04T08:59:46;8.43;;;2.10;;
59512;SDS011;45330;51.634;5.562;2023-03-04T09:02:12;8.15;;;1.95;;
59512;SDS011;45330;51.634;5.562;2023-03-04T09:04:37;12.57;;;2.10;;
59512;SDS011;45330;51.634;5.562;2023-03-04T09:07:03;5.65;;;2.03;;
59512;SDS011;45330;51.634;5.562;2023-03-04T09:09:28;9.02;;;2.05;;
59512;SDS011;45330;51.634;5.562;2023-03-04T09:11:54;9.05;;;2.25;;
59512;SDS011;45330;51.634;5.562;2023-03-04T09:14:19;12.10;;;2.67;;
59512;SDS011;45330;51.634;5.562;2023-03-04T09:16:44;10.55;;;2.30;;
59512;SDS011;45330;51.634;5.562;2023-03-04T09:19:10;8.27;;;2.50;;
59512;SDS011;45330;51.634;5.562;2023-03-04T09:21:35;11.43;;;2.45;;
59512;SDS011;45330;51.634;5.562;2023-03-04T09:24:01;11.00;;;2.30;;
59512;SDS011;45330;51.634;5.562;2023-03-04T09:26:27;10.48;;;2.40;;
59512;SDS011;45330;51.634;5.562;2023-03-04T09:28:54;8.77;;;2.10;;
59512;SDS011;45330;51.634;5.562;2023-03-04T09:31:21;6.32;;;2.00;;
59512;SDS011;45330;51.634;5.562;2023-03-04T09:33:47;5.82;;;1.88;;
59512;SDS011;45330;51.634;5.562;2023-03-04T09:36:13;8.98;;;2.70;;
59512;SDS011;45330;51.634;5.562;2023-03-04T09:38:40;11.80;;;2.30;;
59512;SDS011;45330;51.634;5.562;2023-03-04T09:41:07;10.90;;;2.30;;
59512;SDS011;45330;51.634;5.562;2023-03-04T09:43:35;7.93;;;2.38;;
59512;SDS011;45330;51.634;5.562;2023-03-04T09:46:07;12.80;;;2.70;;
59512;SDS011;45330;51.634;5.562;2023-03-04T09:48:44;12.30;;;2.70;;
59512;SDS011;45330;51.634;5.562;2023-03-04T09:51:18;7.15;;;2.08;;
59512;SDS011;45330;51.634;5.562;2023-03-04T09:56:42;8.95;;;2.10;;
59512;SDS011;45330;51.634;5.562;2023-03-04T09:59:14;9.52;;;2.40;;
59512;SDS011;45330;51.634;5.562;2023-03-04T10:01:55;11.35;;;2.67;;
59512;SDS011;45330;51.634;5.562;2023-03-04T10:04:34;11.27;;;2.40;;
59512;SDS011;45330;51.634;5.562;2023-03-04T10:07:05;8.50;;;2.38;;
59512;SDS011;45330;51.634;5.562;2023-03-04T10:12:11;6.25;;;2.00;;
59512;SDS011;45330;51.634;5.562;2023-03-04T10:14:42;8.73;;;2.20;;
59512;SDS011;45330;51.634;5.562;2023-03-04T10:17:20;7.50;;;2.20;;
59512;SDS011;45330;51.634;5.562;2023-03-04T10:20:01;8.50;;;1.98;;
59512;SDS011;45330;51.634;5.562;2023-03-04T10:22:57;8.68;;;1.95;;
59512;SDS011;45330;51.634;5.562;2023-03-04T10:25:28;6.90;;;2.60;;
59512;SDS011;45330;51.634;5.562;2023-03-04T10:27:58;6.90;;;2.63;;
59512;SDS011;45330;51.634;5.562;2023-03-04T10:33:21;7.38;;;2.35;;
59512;SDS011;45330;51.634;5.562;2023-03-04T10:36:02;6.15;;;2.10;;
59512;SDS011;45330;51.634;5.562;2023-03-04T10:38:37;10.98;;;1.90;;
59512;SDS011;45330;51.634;5.562;2023-03-04T10:41:22;6.68;;;2.10;;
59512;SDS011;45330;51.634;5.562;2023-03-04T10:46:46;4.88;;;1.85;;
59512;SDS011;45330;51.634;5.562;2023-03-04T10:49:14;10.75;;;2.58;;
59512;SDS011;45330;51.634;5.562;2023-03-04T10:51:43;6.85;;;1.90;;
59512;SDS011;45330;51.634;5.562;2023-03-04T10:54:23;4.68;;;2.08;;
59512;SDS011;45330;51.634;5.562;2023-03-04T10:59:43;8.10;;;1.70;;
59512;SDS011;45330;51.634;5.562;2023-03-04T11:04:41;9.10;;;2.50;;
59512;SDS011;45330;51.634;5.562;2023-03-04T11:07:08;6.88;;;1.92;;
59512;SDS011;45330;51.634;5.562;2023-03-04T11:09:35;5.15;;;1.75;;
59512;SDS011;45330;51.634;5.562;2023-03-04T11:12:02;8.27;;;2.03;;
59512;SDS011;45330;51.634;5.562;2023-03-04T11:14:36;7.93;;;1.90;;
59512;SDS011;45330;51.634;5.562;2023-03-04T11:20:13;2.83;;;1.48;;
59512;SDS011;45330;51.634;5.562;2023-03-04T11:22:41;3.33;;;1.58;;
59512;SDS011;45330;51.634;5.562;2023-03-04T11:27:52;7.07;;;1.70;;
59512;SDS011;45330;51.634;5.562;2023-03-04T11:32:54;5.43;;;1.67;;
59512;SDS011;45330;51.634;5.562;2023-03-04T11:35:41;6.63;;;1.67;;
59512;SDS011;45330;51.634;5.562;2023-03-04T11:38:15;3.28;;;1.52;;
59512;SDS011;45330;51.634;5.562;2023-03-04T11:40:53;3.83;;;1.58;;
59512;SDS011;45330;51.634;5.562;2023-03-04T12:02:56;7.70;;;2.30;;
59512;SDS011;45330;51.634;5.562;2023-03-04T12:08:15;4.53;;;2.67;;
59512;SDS011;45330;51.634;5.562;2023-03-04T12:16:09;9.93;;;2.70;;
59512;SDS011;45330;51.634;5.562;2023-03-04T12:22:16;6.75;;;2.20;;
59512;SDS011;45330;51.634;5.562;2023-03-04T12:28:14;4.20;;;2.22;;
59512;SDS011;45330;51.634;5.562;2023-03-04T12:44:52;3.78;;;2.20;;
59512;SDS011;45330;51.634;5.562;2023-03-04T12:47:30;6.27;;;2.03;;
59512;SDS011;45330;51.634;5.562;2023-03-04T12:50:24;5.95;;;2.15;;
59512;SDS011;45330;51.634;5.562;2023-03-04T12:53:04;7.63;;;2.53;;
59512;SDS011;45330;51.634;5.562;2023-03-04T12:55:42;5.47;;;2.25;;
59512;SDS011;45330;51.634;5.562;2023-03-04T12:58:16;5.88;;;2.60;;
59512;SDS011;45330;51.634;5.562;2023-03-04T13:09:34;6.85;;;3.20;;
59512;SDS011;45330;51.634;5.562;2023-03-04T13:12:25;8.57;;;2.70;;
59512;SDS011;45330;51.634;5.562;2023-03-04T13:17:38;8.03;;;3.27;;
59512;SDS011;45330;51.634;5.562;2023-03-04T13:20:24;6.45;;;3.28;;
59512;SDS011;45330;51.634;5.562;2023-03-04T13:23:21;7.20;;;3.30;;
59512;SDS011;45330;51.634;5.562;2023-03-04T13:35:48;9.38;;;3.10;;
59512;SDS011;45330;51.634;5.562;2023-03-04T13:43:36;8.10;;;2.60;;
59512;SDS011;45330;51.634;5.562;2023-03-04T13:46:39;7.15;;;2.95;;
59512;SDS011;45330;51.634;5.562;2023-03-04T13:49:07;6.50;;;2.65;;
59512;SDS011;45330;51.634;5.562;2023-03-04T13:51:44;6.03;;;2.65;;
59512;SDS011;45330;51.634;5.562;2023-03-04T13:56:45;5.50;;;2.00;;
59512;SDS011;45330;51.634;5.562;2023-03-04T14:02:00;6.60;;;2.42;;
59512;SDS011;45330;51.634;5.562;2023-03-04T14:04:45;6.03;;;2.60;;
59512;SDS011;45330;51.634;5.562;2023-03-04T14:07:26;6.53;;;2.25;;
59512;SDS011;45330;51.634;5.562;2023-03-04T14:12:20;6.18;;;2.53;;
59512;SDS011;45330;51.634;5.562;2023-03-04T14:14:47;5.85;;;1.92;;
59512;SDS011;45330;51.634;5.562;2023-03-04T14:17:32;6.72;;;2.20;;
59512;SDS011;45330;51.634;5.562;2023-03-04T14:20:03;9.18;;;3.38;;
59512;SDS011;45330;51.634;5.562;2023-03-04T14:22:31;9.85;;;3.20;;
59512;SDS011;45330;51.634;5.562;2023-03-04T14:27:37;8.02;;;2.00;;
59512;SDS011;45330;51.634;5.562;2023-03-04T14:30:06;9.95;;;2.30;;
59512;SDS011;45330;51.634;5.562;2023-03-04T14:32:43;10.20;;;2.20;;
59512;SDS011;45330;51.634;5.562;2023-03-04T14:35:27;11.73;;;2.13;;
59512;SDS011;45330;51.634;5.562;2023-03-04T14:38:01;8.07;;;2.30;;
59512;SDS011;45330;51.634;5.562;2023-03-04T14:40:30;12.93;;;2.90;;
59512;SDS011;45330;51.634;5.562;2023-03-04T14:43:06;8.50;;;2.10;;
59512;SDS011;45330;51.634;5.562;2023-03-04T14:45:39;13.18;;;3.28;;
59512;SDS011;45330;51.634;5.562;2023-03-04T14:48:06;11.57;;;2.60;;
59512;SDS011;45330;51.634;5.562;2023-03-04T14:50:32;11.35;;;2.42;;
59512;SDS011;45330;51.634;5.562;2023-03-04T14:55:32;10.02;;;2.22;;
59512;SDS011;45330;51.634;5.562;2023-03-04T14:58:08;11.80;;;2.72;;
59512;SDS011;45330;51.634;5.562;2023-03-04T15:00:43;8.48;;;2.20;;
59512;SDS011;45330;51.634;5.562;2023-03-04T15:03:28;9.65;;;2.05;;
59512;SDS011;45330;51.634;5.562;2023-03-04T15:05:54;10.63;;;2.53;;
59512;SDS011;45330;51.634;5.562;2023-03-04T15:08:36;15.38;;;2.75;;
59512;SDS011;45330;51.634;5.562;2023-03-04T15:11:05;15.25;;;2.90;;
59512;SDS011;45330;51.634;5.562;2023-03-04T15:13:39;15.32;;;2.90;;
59512;SDS011;45330;51.634;5.562;2023-03-04T15:16:10;15.65;;;2.60;;
59512;SDS011;45330;51.634;5.562;2023-03-04T15:21:36;12.90;;;2.92;;
59512;SDS011;45330;51.634;5.562;2023-03-04T15:24:04;10.32;;;2.47;;
59512;SDS011;45330;51.634;5.562;2023-03-04T15:26:31;14.15;;;2.67;;
59512;SDS011;45330;51.634;5.562;2023-03-04T15:28:58;17.15;;;3.10;;
59512;SDS011;45330;51.634;5.562;2023-03-04T15:31:23;12.52;;;2.58;;
59512;SDS011;45330;51.634;5.562;2023-03-04T15:33:50;13.35;;;2.63;;
59512;SDS011;45330;51.634;5.562;2023-03-04T15:36:18;18.13;;;3.33;;
59512;SDS011;45330;51.634;5.562;2023-03-04T15:38:46;16.98;;;3.20;;
59512;SDS011;45330;51.634;5.562;2023-03-04T15:41:19;12.60;;;2.83;;
59512;SDS011;45330;51.634;5.562;2023-03-04T15:43:47;15.52;;;3.17;;
59512;SDS011;45330;51.634;5.562;2023-03-04T15:46:13;14.20;;;2.58;;
59512;SDS011;45330;51.634;5.562;2023-03-04T15:48:38;11.80;;;2.40;;
59512;SDS011;45330;51.634;5.562;2023-03-04T15:51:05;17.45;;;2.40;;
59512;SDS011;45330;51.634;5.562;2023-03-04T15:53:40;12.60;;;2.38;;
59512;SDS011;45330;51.634;5.562;2023-03-04T15:56:13;13.02;;;2.10;;
59512;SDS011;45330;51.634;5.562;2023-03-04T15:58:41;12.88;;;2.30;;
59512;SDS011;45330;51.634;5.562;2023-03-04T16:01:08;9.77;;;2.17;;
59512;SDS011;45330;51.634;5.562;2023-03-04T16:03:39;12.07;;;2.97;;
59512;SDS011;45330;51.634;5.562;2023-03-04T16:06:07;13.38;;;2.42;;
59512;SDS011;45330;51.634;5.562;2023-03-04T16:08:34;12.60;;;2.00;;
59512;SDS011;45330;51.634;5.562;2023-03-04T16:11:00;14.88;;;2.95;;
59512;SDS011;45330;51.634;5.562;2023-03-04T16:13:25;9.63;;;2.10;;
59512;SDS011;45330;51.634;5.562;2023-03-04T16:15:50;11.15;;;2.33;;
59512;SDS011;45330;51.634;5.562;2023-03-04T16:18:16;12.88;;;2.67;;
59512;SDS011;45330;51.634;5.562;2023-03-04T16:20:42;10.65;;;2.70;;
59512;SDS011;45330;51.634;5.562;2023-03-04T16:23:11;9.00;;;2.30;;
59512;SDS011;45330;51.634;5.562;2023-03-04T16:25:44;9.88;;;2.15;;
59512;SDS011;45330;51.634;5.562;2023-03-04T16:28:11;6.25;;;2.20;;
59512;SDS011;45330;51.634;5.562;2023-03-04T16:30:36;13.98;;;2.20;;
59512;SDS011;45330;51.634;5.562;2023-03-04T16:33:02;10.93;;;2.05;;
59512;SDS011;45330;51.634;5.562;2023-03-04T16:35:27;8.70;;;2.40;;
59512;SDS011;45330;51.634;5.562;2023-03-04T16:37:53;12.73;;;2.15;;
59512;SDS011;45330;51.634;5.562;2023-03-04T16:40:21;6.00;;;1.50;;
59512;SDS011;45330;51.634;5.562;2023-03-04T16:42:50;10.32;;;1.90;;
59512;SDS011;45330;51.634;5.562;2023-03-04T16:45:16;10.07;;;1.92;;
59512;SDS011;45330;51.634;5.562;2023-03-04T16:47:44;6.00;;;1.80;;